sensor_id;sensor_type;location;lat;lon;timestamp;pressure;altitude;pressure_sealevel;temperature;humidity
37170;BME280;23062;13.952;100.608;2022-12-01T00:02:58;1011.70;;;29.61;69.04
37170;BME280;23062;13.952;100.608;2022-12-01T00:07:24;1011.69;;;29.60;69.07
37170;BME280;23062;13.952;100.608;2022-12-01T00:11:50;1011.74;;;29.58;69.20
37170;BME280;23062;13.952;100.608;2022-12-01T00:16:17;1011.78;;;29.43;69.73
37170;BME280;23062;13.952;100.608;2022-12-01T00:20:42;1011.92;;;29.63;69.03
37170;BME280;23062;13.952;100.608;2022-12-01T00:25:17;1012.03;;;29.55;69.51
37170;BME280;23062;13.952;100.608;2022-12-01T00:29:44;1012.15;;;29.62;69.44
37170;BME280;23062;13.952;100.608;2022-12-01T00:34:22;1012.25;;;29.52;69.71
37170;BME280;23062;13.952;100.608;2022-12-01T00:38:53;1012.35;;;29.53;69.73
37170;BME280;23062;13.952;100.608;2022-12-01T00:43:21;1012.43;;;29.50;69.86
37170;BME280;23062;13.952;100.608;2022-12-01T00:47:48;1012.42;;;29.50;69.85
37170;BME280;23062;13.952;100.608;2022-12-01T00:52:16;1012.52;;;29.40;70.19
37170;BME280;23062;13.952;100.608;2022-12-01T00:56:41;1012.63;;;29.28;69.98
37170;BME280;23062;13.952;100.608;2022-12-01T01:01:08;1012.59;;;29.19;70.27
37170;BME280;23062;13.952;100.608;2022-12-01T01:05:39;1012.70;;;29.24;70.08
37170;BME280;23062;13.952;100.608;2022-12-01T01:10:06;1012.78;;;29.22;69.42
37170;BME280;23062;13.952;100.608;2022-12-01T01:14:32;1012.79;;;29.25;69.55
37170;BME280;23062;13.952;100.608;2022-12-01T01:18:58;1012.86;;;29.33;68.90
37170;BME280;23062;13.952;100.608;2022-12-01T01:23:26;1012.91;;;29.32;68.38
37170;BME280;23062;13.952;100.608;2022-12-01T01:27:52;1012.92;;;29.37;67.83
37170;BME280;23062;13.952;100.608;2022-12-01T01:32:18;1012.87;;;29.46;67.89
37170;BME280;23062;13.952;100.608;2022-12-01T01:36:46;1012.91;;;29.51;67.62
37170;BME280;23062;13.952;100.608;2022-12-01T01:41:56;1013.00;;;29.54;67.41
37170;BME280;23062;13.952;100.608;2022-12-01T01:46:25;1012.97;;;29.78;65.88
37170;BME280;23062;13.952;100.608;2022-12-01T01:50:56;1012.96;;;29.84;65.40
37170;BME280;23062;13.952;100.608;2022-12-01T01:55:37;1013.00;;;29.91;65.41
37170;BME280;23062;13.952;100.608;2022-12-01T02:00:16;1013.05;;;29.92;64.87
37170;BME280;23062;13.952;100.608;2022-12-01T02:05:53;1013.13;;;30.08;64.57
37170;BME280;23062;13.952;100.608;2022-12-01T02:10:20;1013.09;;;30.11;64.58
37170;BME280;23062;13.952;100.608;2022-12-01T02:15:15;1013.02;;;30.16;64.76
37170;BME280;23062;13.952;100.608;2022-12-01T02:21:58;1012.94;;;30.31;64.60
37170;BME280;23062;13.952;100.608;2022-12-01T02:26:41;1012.91;;;30.27;64.52
37170;BME280;23062;13.952;100.608;2022-12-01T02:36:41;1012.79;;;30.36;64.13
37170;BME280;23062;13.952;100.608;2022-12-01T02:41:19;1012.76;;;30.38;64.21
37170;BME280;23062;13.952;100.608;2022-12-01T02:46:03;1012.79;;;30.41;64.28
37170;BME280;23062;13.952;100.608;2022-12-01T02:50:33;1012.74;;;30.43;64.50
37170;BME280;23062;13.952;100.608;2022-12-01T02:54:59;1012.72;;;30.45;64.45
37170;BME280;23062;13.952;100.608;2022-12-01T02:59:38;1012.72;;;30.48;64.57
37170;BME280;23062;13.952;100.608;2022-12-01T03:13:56;1012.66;;;30.58;64.43
37170;BME280;23062;13.952;100.608;2022-12-01T03:19:14;1012.60;;;30.61;64.23
37170;BME280;23062;13.952;100.608;2022-12-01T03:23:44;1012.58;;;30.61;64.20
37170;BME280;23062;13.952;100.608;2022-12-01T03:36:26;1012.33;;;30.84;63.89
37170;BME280;23062;13.952;100.608;2022-12-01T03:41:00;1012.27;;;30.74;64.20
37170;BME280;23062;13.952;100.608;2022-12-01T03:45:34;1012.21;;;30.68;64.47
37170;BME280;23062;13.952;100.608;2022-12-01T03:51:14;1012.13;;;30.73;64.60
37170;BME280;23062;13.952;100.608;2022-12-01T03:55:40;1012.09;;;30.72;64.58
37170;BME280;23062;13.952;100.608;2022-12-01T04:00:08;1012.10;;;30.72;64.84
37170;BME280;23062;13.952;100.608;2022-12-01T04:04:42;1012.04;;;30.73;64.92
37170;BME280;23062;13.952;100.608;2022-12-01T04:09:20;1011.95;;;30.74;64.68
37170;BME280;23062;13.952;100.608;2022-12-01T04:13:47;1011.86;;;30.73;64.59
37170;BME280;23062;13.952;100.608;2022-12-01T04:18:13;1011.76;;;30.72;64.60
37170;BME280;23062;13.952;100.608;2022-12-01T04:22:44;1011.73;;;30.78;64.14
37170;BME280;23062;13.952;100.608;2022-12-01T04:27:13;1011.62;;;30.77;64.25
37170;BME280;23062;13.952;100.608;2022-12-01T04:32:30;1011.54;;;30.84;64.19
37170;BME280;23062;13.952;100.608;2022-12-01T04:36:55;1011.47;;;30.84;64.22
37170;BME280;23062;13.952;100.608;2022-12-01T04:42:00;1011.36;;;30.87;63.95
37170;BME280;23062;13.952;100.608;2022-12-01T04:46:34;1011.29;;;30.88;63.86
37170;BME280;23062;13.952;100.608;2022-12-01T04:54:59;1011.09;;;30.99;62.63
37170;BME280;23062;13.952;100.608;2022-12-01T04:59:24;1011.01;;;30.98;62.69
37170;BME280;23062;13.952;100.608;2022-12-01T05:03:50;1010.94;;;30.97;62.67
37170;BME280;23062;13.952;100.608;2022-12-01T05:08:17;1010.69;;;30.99;62.61
37170;BME280;23062;13.952;100.608;2022-12-01T05:12:43;1010.76;;;30.95;62.65
37170;BME280;23062;13.952;100.608;2022-12-01T05:17:08;1010.75;;;30.83;62.74
37170;BME280;23062;13.952;100.608;2022-12-01T05:21:44;1010.73;;;30.88;62.23
37170;BME280;23062;13.952;100.608;2022-12-01T05:26:11;1010.68;;;30.91;61.41
37170;BME280;23062;13.952;100.608;2022-12-01T05:30:37;1010.56;;;30.91;61.39
37170;BME280;23062;13.952;100.608;2022-12-01T05:35:20;1010.49;;;30.92;61.44
37170;BME280;23062;13.952;100.608;2022-12-01T05:39:46;1010.45;;;31.17;59.66
37170;BME280;23062;13.952;100.608;2022-12-01T05:44:12;1010.37;;;31.21;59.01
37170;BME280;23062;13.952;100.608;2022-12-01T05:48:38;1010.25;;;31.09;59.93
37170;BME280;23062;13.952;100.608;2022-12-01T05:53:04;1010.12;;;31.10;60.24
37170;BME280;23062;13.952;100.608;2022-12-01T05:57:30;1010.05;;;31.13;60.14
37170;BME280;23062;13.952;100.608;2022-12-01T06:01:56;1010.00;;;31.22;59.39
37170;BME280;23062;13.952;100.608;2022-12-01T06:06:22;1009.85;;;31.16;59.88
37170;BME280;23062;13.952;100.608;2022-12-01T06:10:48;1009.76;;;31.16;59.95
37170;BME280;23062;13.952;100.608;2022-12-01T06:15:16;1009.59;;;31.17;59.85
37170;BME280;23062;13.952;100.608;2022-12-01T06:19:43;1009.49;;;31.23;58.52
37170;BME280;23062;13.952;100.608;2022-12-01T06:24:11;1009.40;;;31.49;55.22
37170;BME280;23062;13.952;100.608;2022-12-01T06:28:40;1009.34;;;31.45;55.42
37170;BME280;23062;13.952;100.608;2022-12-01T06:33:06;1009.23;;;31.31;56.57
37170;BME280;23062;13.952;100.608;2022-12-01T06:37:33;1009.25;;;31.37;56.70
37170;BME280;23062;13.952;100.608;2022-12-01T06:41:59;1009.15;;;31.27;57.42
37170;BME280;23062;13.952;100.608;2022-12-01T06:46:26;1008.99;;;31.26;57.49
37170;BME280;23062;13.952;100.608;2022-12-01T06:51:00;1008.90;;;31.36;55.94
37170;BME280;23062;13.952;100.608;2022-12-01T06:55:26;1008.86;;;31.43;55.15
37170;BME280;23062;13.952;100.608;2022-12-01T06:59:54;1008.80;;;31.50;53.44
37170;BME280;23062;13.952;100.608;2022-12-01T07:04:20;1008.69;;;31.49;53.04
37170;BME280;23062;13.952;100.608;2022-12-01T07:08:47;1008.61;;;31.47;52.50
37170;BME280;23062;13.952;100.608;2022-12-01T07:13:13;1008.53;;;31.50;52.73
37170;BME280;23062;13.952;100.608;2022-12-01T07:17:39;1008.49;;;31.40;53.62
37170;BME280;23062;13.952;100.608;2022-12-01T07:22:05;1008.51;;;31.37;54.17
37170;BME280;23062;13.952;100.608;2022-12-01T07:26:33;1008.44;;;31.35;54.45
37170;BME280;23062;13.952;100.608;2022-12-01T07:35:29;1008.29;;;31.46;54.80
37170;BME280;23062;13.952;100.608;2022-12-01T07:39:56;1008.27;;;31.49;54.76
37170;BME280;23062;13.952;100.608;2022-12-01T07:44:23;1008.26;;;31.47;54.97
37170;BME280;23062;13.952;100.608;2022-12-01T07:48:56;1008.07;;;31.45;55.42
37170;BME280;23062;13.952;100.608;2022-12-01T07:53:24;1008.02;;;31.36;56.29
37170;BME280;23062;13.952;100.608;2022-12-01T07:57:53;1007.94;;;31.35;56.40
37170;BME280;23062;13.952;100.608;2022-12-01T08:02:20;1007.99;;;31.43;56.21
37170;BME280;23062;13.952;100.608;2022-12-01T08:06:49;1007.91;;;31.47;55.95
37170;BME280;23062;13.952;100.608;2022-12-01T08:11:20;1007.77;;;31.46;56.04
37170;BME280;23062;13.952;100.608;2022-12-01T08:15:49;1007.76;;;31.44;56.54
37170;BME280;23062;13.952;100.608;2022-12-01T08:20:15;1007.74;;;31.46;56.17
37170;BME280;23062;13.952;100.608;2022-12-01T08:24:41;1007.64;;;31.48;55.97
37170;BME280;23062;13.952;100.608;2022-12-01T08:29:09;1007.63;;;31.60;56.19
37170;BME280;23062;13.952;100.608;2022-12-01T08:33:34;1007.72;;;31.64;55.90
37170;BME280;23062;13.952;100.608;2022-12-01T08:38:00;1007.72;;;31.65;55.83
37170;BME280;23062;13.952;100.608;2022-12-01T08:42:26;1007.71;;;31.66;55.99
37170;BME280;23062;13.952;100.608;2022-12-01T08:46:52;1007.66;;;31.67;55.14
37170;BME280;23062;13.952;100.608;2022-12-01T08:51:18;1007.56;;;31.68;55.54
37170;BME280;23062;13.952;100.608;2022-12-01T08:55:44;1007.49;;;31.66;55.10
37170;BME280;23062;13.952;100.608;2022-12-01T09:00:11;1007.39;;;31.67;55.06
37170;BME280;23062;13.952;100.608;2022-12-01T09:04:36;1007.44;;;31.64;55.28
37170;BME280;23062;13.952;100.608;2022-12-01T09:09:02;1007.53;;;31.67;54.63
37170;BME280;23062;13.952;100.608;2022-12-01T09:13:29;1007.54;;;31.65;54.78
37170;BME280;23062;13.952;100.608;2022-12-01T09:17:55;1007.65;;;31.67;54.86
37170;BME280;23062;13.952;100.608;2022-12-01T09:22:21;1007.63;;;31.69;54.96
37170;BME280;23062;13.952;100.608;2022-12-01T09:26:47;1007.70;;;31.69;55.08
37170;BME280;23062;13.952;100.608;2022-12-01T09:31:15;1007.69;;;31.67;55.20
37170;BME280;23062;13.952;100.608;2022-12-01T09:35:41;1007.63;;;31.65;55.38
37170;BME280;23062;13.952;100.608;2022-12-01T09:40:08;1007.64;;;31.66;55.47
37170;BME280;23062;13.952;100.608;2022-12-01T09:44:46;1007.65;;;31.63;55.92
37170;BME280;23062;13.952;100.608;2022-12-01T09:49:34;1007.62;;;31.59;56.21
37170;BME280;23062;13.952;100.608;2022-12-01T09:53:57;1007.63;;;31.63;56.18
37170;BME280;23062;13.952;100.608;2022-12-01T09:58:24;1007.51;;;31.60;55.67
37170;BME280;23062;13.952;100.608;2022-12-01T10:07:32;1007.61;;;31.62;56.08
37170;BME280;23062;13.952;100.608;2022-12-01T10:12:00;1007.64;;;31.59;55.95
37170;BME280;23062;13.952;100.608;2022-12-01T10:16:35;1007.71;;;31.57;56.07
37170;BME280;23062;13.952;100.608;2022-12-01T10:25:45;1007.85;;;31.59;56.37
37170;BME280;23062;13.952;100.608;2022-12-01T10:30:20;1007.80;;;31.57;56.72
37170;BME280;23062;13.952;100.608;2022-12-01T10:34:47;1007.85;;;31.53;56.90
37170;BME280;23062;13.952;100.608;2022-12-01T10:43:48;1007.89;;;31.54;56.55
37170;BME280;23062;13.952;100.608;2022-12-01T10:48:17;1007.93;;;31.56;57.15
37170;BME280;23062;13.952;100.608;2022-12-01T10:52:44;1008.06;;;31.56;57.58
37170;BME280;23062;13.952;100.608;2022-12-01T10:57:14;1008.05;;;31.24;58.83
37170;BME280;23062;13.952;100.608;2022-12-01T11:01:46;1008.03;;;31.19;59.13
37170;BME280;23062;13.952;100.608;2022-12-01T11:06:13;1008.10;;;31.17;59.42
37170;BME280;23062;13.952;100.608;2022-12-01T11:10:40;1008.16;;;31.20;59.87
37170;BME280;23062;13.952;100.608;2022-12-01T11:15:16;1008.32;;;31.23;60.17
37170;BME280;23062;13.952;100.608;2022-12-01T11:19:36;1008.34;;;31.22;60.15
37170;BME280;23062;13.952;100.608;2022-12-01T11:24:03;1008.39;;;31.24;60.22
37170;BME280;23062;13.952;100.608;2022-12-01T11:28:31;1008.48;;;31.25;60.40
37170;BME280;23062;13.952;100.608;2022-12-01T11:33:01;1008.50;;;31.25;60.28
37170;BME280;23062;13.952;100.608;2022-12-01T11:37:31;1008.55;;;31.23;60.37
37170;BME280;23062;13.952;100.608;2022-12-01T11:42:01;1008.67;;;31.25;60.51
37170;BME280;23062;13.952;100.608;2022-12-01T11:46:35;1008.74;;;31.26;60.58
37170;BME280;23062;13.952;100.608;2022-12-01T11:51:07;1008.86;;;31.26;60.64
37170;BME280;23062;13.952;100.608;2022-12-01T11:55:34;1008.96;;;31.26;60.83
37170;BME280;23062;13.952;100.608;2022-12-01T12:00:13;1009.10;;;31.25;60.75
37170;BME280;23062;13.952;100.608;2022-12-01T12:05:15;1009.02;;;31.27;60.75
37170;BME280;23062;13.952;100.608;2022-12-01T12:47:41;1009.65;;;31.24;62.25
37170;BME280;23062;13.952;100.608;2022-12-01T12:52:12;1009.79;;;31.26;62.45
37170;BME280;23062;13.952;100.608;2022-12-01T12:56:44;1009.73;;;31.25;62.86
37170;BME280;23062;13.952;100.608;2022-12-01T13:01:38;1009.71;;;31.26;63.11
37170;BME280;23062;13.952;100.608;2022-12-01T13:06:06;1009.81;;;31.23;63.38
37170;BME280;23062;13.952;100.608;2022-12-01T13:10:54;1009.83;;;31.21;63.45
37170;BME280;23062;13.952;100.608;2022-12-01T13:15:21;1009.93;;;31.32;63.12
37170;BME280;23062;13.952;100.608;2022-12-01T13:19:47;1010.10;;;31.47;62.27
37170;BME280;23062;13.952;100.608;2022-12-01T13:24:20;1010.08;;;31.53;62.20
37170;BME280;23062;13.952;100.608;2022-12-01T13:28:46;1010.08;;;31.54;62.14
37170;BME280;23062;13.952;100.608;2022-12-01T13:33:13;1010.15;;;31.56;62.21
37170;BME280;23062;13.952;100.608;2022-12-01T13:37:40;1010.25;;;31.57;62.24
37170;BME280;23062;13.952;100.608;2022-12-01T13:42:17;1010.34;;;31.55;62.33
37170;BME280;23062;13.952;100.608;2022-12-01T13:51:12;1010.51;;;31.54;62.55
37170;BME280;23062;13.952;100.608;2022-12-01T14:00:39;1010.59;;;31.53;62.59
37170;BME280;23062;13.952;100.608;2022-12-01T14:10:15;1010.59;;;31.52;62.67
37170;BME280;23062;13.952;100.608;2022-12-01T14:14:43;1010.60;;;31.52;62.81
37170;BME280;23062;13.952;100.608;2022-12-01T14:19:09;1010.62;;;31.50;62.92
37170;BME280;23062;13.952;100.608;2022-12-01T14:28:15;1010.76;;;31.48;63.10
37170;BME280;23062;13.952;100.608;2022-12-01T14:32:41;1010.76;;;31.47;63.13
37170;BME280;23062;13.952;100.608;2022-12-01T14:37:17;1010.92;;;31.47;63.11
37170;BME280;23062;13.952;100.608;2022-12-01T14:41:52;1010.94;;;31.46;63.07
37170;BME280;23062;13.952;100.608;2022-12-01T14:46:20;1011.06;;;31.47;63.08
37170;BME280;23062;13.952;100.608;2022-12-01T14:50:50;1011.22;;;31.45;63.17
37170;BME280;23062;13.952;100.608;2022-12-01T14:55:22;1011.29;;;31.46;63.21
37170;BME280;23062;13.952;100.608;2022-12-01T15:05:06;1011.30;;;31.45;63.31
37170;BME280;23062;13.952;100.608;2022-12-01T15:09:33;1011.35;;;31.46;63.30
37170;BME280;23062;13.952;100.608;2022-12-01T15:13:59;1011.33;;;31.45;63.36
37170;BME280;23062;13.952;100.608;2022-12-01T15:18:30;1011.33;;;31.42;63.46
37170;BME280;23062;13.952;100.608;2022-12-01T15:23:01;1011.33;;;31.42;63.52
37170;BME280;23062;13.952;100.608;2022-12-01T15:27:30;1011.21;;;31.40;63.65
37170;BME280;23062;13.952;100.608;2022-12-01T15:32:01;1011.15;;;31.41;63.69
37170;BME280;23062;13.952;100.608;2022-12-01T15:36:29;1011.20;;;31.41;63.83
37170;BME280;23062;13.952;100.608;2022-12-01T15:40:57;1011.19;;;31.40;63.90
37170;BME280;23062;13.952;100.608;2022-12-01T15:45:24;1011.23;;;31.39;64.03
37170;BME280;23062;13.952;100.608;2022-12-01T15:49:49;1011.19;;;31.39;64.08
37170;BME280;23062;13.952;100.608;2022-12-01T15:54:18;1011.17;;;31.38;63.96
37170;BME280;23062;13.952;100.608;2022-12-01T15:58:45;1011.25;;;31.37;64.21
37170;BME280;23062;13.952;100.608;2022-12-01T16:03:12;1011.19;;;31.37;64.09
37170;BME280;23062;13.952;100.608;2022-12-01T16:07:38;1011.08;;;31.36;64.19
37170;BME280;23062;13.952;100.608;2022-12-01T16:12:19;1011.08;;;31.35;64.11
37170;BME280;23062;13.952;100.608;2022-12-01T16:16:48;1010.97;;;31.35;64.11
37170;BME280;23062;13.952;100.608;2022-12-01T16:21:16;1010.93;;;31.35;64.21
37170;BME280;23062;13.952;100.608;2022-12-01T16:25:44;1010.82;;;31.34;64.31
37170;BME280;23062;13.952;100.608;2022-12-01T16:30:18;1010.87;;;31.34;64.33
37170;BME280;23062;13.952;100.608;2022-12-01T16:34:46;1010.82;;;31.33;64.40
37170;BME280;23062;13.952;100.608;2022-12-01T16:39:13;1010.76;;;31.33;64.49
37170;BME280;23062;13.952;100.608;2022-12-01T16:43:39;1010.72;;;31.33;64.54
37170;BME280;23062;13.952;100.608;2022-12-01T16:48:08;1010.67;;;31.32;64.68
37170;BME280;23062;13.952;100.608;2022-12-01T16:52:34;1010.63;;;31.32;64.80
37170;BME280;23062;13.952;100.608;2022-12-01T16:57:00;1010.51;;;31.31;64.74
37170;BME280;23062;13.952;100.608;2022-12-01T17:01:27;1010.52;;;31.32;64.96
37170;BME280;23062;13.952;100.608;2022-12-01T17:05:54;1010.38;;;31.31;65.02
37170;BME280;23062;13.952;100.608;2022-12-01T17:10:20;1010.29;;;31.31;65.16
37170;BME280;23062;13.952;100.608;2022-12-01T17:14:47;1010.23;;;31.30;65.10
37170;BME280;23062;13.952;100.608;2022-12-01T17:19:12;1010.32;;;31.30;65.31
37170;BME280;23062;13.952;100.608;2022-12-01T17:23:38;1010.35;;;31.30;65.15
37170;BME280;23062;13.952;100.608;2022-12-01T17:28:09;1010.20;;;31.29;65.32
37170;BME280;23062;13.952;100.608;2022-12-01T17:32:35;1010.24;;;31.29;65.19
37170;BME280;23062;13.952;100.608;2022-12-01T17:37:00;1010.31;;;31.30;65.31
37170;BME280;23062;13.952;100.608;2022-12-01T17:41:26;1010.34;;;31.29;65.12
37170;BME280;23062;13.952;100.608;2022-12-01T17:45:54;1010.27;;;31.29;65.31
37170;BME280;23062;13.952;100.608;2022-12-01T17:50:21;1010.17;;;31.29;65.10
37170;BME280;23062;13.952;100.608;2022-12-01T17:55:04;1010.10;;;31.30;65.29
37170;BME280;23062;13.952;100.608;2022-12-01T17:59:29;1010.13;;;31.27;65.25
37170;BME280;23062;13.952;100.608;2022-12-01T18:03:57;1010.17;;;31.27;65.24
37170;BME280;23062;13.952;100.608;2022-12-01T18:08:25;1010.09;;;31.26;65.49
37170;BME280;23062;13.952;100.608;2022-12-01T18:12:53;1009.80;;;31.25;65.31
37170;BME280;23062;13.952;100.608;2022-12-01T18:17:22;1009.87;;;31.23;65.13
37170;BME280;23062;13.952;100.608;2022-12-01T18:21:48;1009.75;;;31.24;65.09
37170;BME280;23062;13.952;100.608;2022-12-01T18:26:13;1009.64;;;31.24;65.28
37170;BME280;23062;13.952;100.608;2022-12-01T18:30:39;1009.64;;;31.22;65.19
37170;BME280;23062;13.952;100.608;2022-12-01T18:35:05;1009.71;;;31.23;65.13
37170;BME280;23062;13.952;100.608;2022-12-01T18:39:32;1009.76;;;31.21;64.95
37170;BME280;23062;13.952;100.608;2022-12-01T18:43:58;1009.75;;;31.21;65.03
37170;BME280;23062;13.952;100.608;2022-12-01T18:48:26;1009.76;;;31.20;64.88
37170;BME280;23062;13.952;100.608;2022-12-01T18:52:52;1009.67;;;31.20;64.99
37170;BME280;23062;13.952;100.608;2022-12-01T18:57:18;1009.70;;;31.18;64.87
37170;BME280;23062;13.952;100.608;2022-12-01T19:01:44;1009.71;;;31.18;64.97
37170;BME280;23062;13.952;100.608;2022-12-01T19:06:13;1009.86;;;31.18;65.06
37170;BME280;23062;13.952;100.608;2022-12-01T19:10:39;1009.86;;;31.17;64.81
37170;BME280;23062;13.952;100.608;2022-12-01T19:15:06;1009.63;;;31.15;64.88
37170;BME280;23062;13.952;100.608;2022-12-01T19:19:32;1009.40;;;31.14;64.74
37170;BME280;23062;13.952;100.608;2022-12-01T19:23:58;1009.43;;;31.13;65.46
37170;BME280;23062;13.952;100.608;2022-12-01T19:28:24;1009.58;;;31.08;65.49
37170;BME280;23062;13.952;100.608;2022-12-01T19:32:49;1009.24;;;31.03;66.60
37170;BME280;23062;13.952;100.608;2022-12-01T19:37:21;1009.10;;;30.99;66.63
37170;BME280;23062;13.952;100.608;2022-12-01T19:47:12;1008.96;;;31.02;67.23
37170;BME280;23062;13.952;100.608;2022-12-01T19:51:38;1008.90;;;30.97;67.04
37170;BME280;23062;13.952;100.608;2022-12-01T19:56:06;1008.89;;;30.95;67.33
37170;BME280;23062;13.952;100.608;2022-12-01T20:00:32;1008.79;;;30.92;67.01
37170;BME280;23062;13.952;100.608;2022-12-01T20:05:01;1008.77;;;30.91;67.39
37170;BME280;23062;13.952;100.608;2022-12-01T20:09:30;1008.77;;;30.88;67.01
37170;BME280;23062;13.952;100.608;2022-12-01T20:13:59;1008.75;;;30.88;67.33
37170;BME280;23062;13.952;100.608;2022-12-01T20:18:26;1008.71;;;30.88;67.67
37170;BME280;23062;13.952;100.608;2022-12-01T20:22:56;1008.80;;;30.88;68.06
37170;BME280;23062;13.952;100.608;2022-12-01T20:27:24;1008.93;;;30.86;68.31
37170;BME280;23062;13.952;100.608;2022-12-01T20:31:51;1009.04;;;30.80;68.58
37170;BME280;23062;13.952;100.608;2022-12-01T20:36:21;1009.10;;;30.68;68.66
37170;BME280;23062;13.952;100.608;2022-12-01T20:40:52;1009.05;;;30.64;69.27
37170;BME280;23062;13.952;100.608;2022-12-01T20:45:21;1008.93;;;30.59;69.48
37170;BME280;23062;13.952;100.608;2022-12-01T20:49:52;1008.80;;;30.53;69.66
37170;BME280;23062;13.952;100.608;2022-12-01T20:54:18;1008.82;;;30.49;69.46
37170;BME280;23062;13.952;100.608;2022-12-01T20:58:44;1008.88;;;30.51;69.35
37170;BME280;23062;13.952;100.608;2022-12-01T21:03:13;1008.98;;;30.51;69.12
37170;BME280;23062;13.952;100.608;2022-12-01T21:07:41;1009.05;;;30.49;69.67
37170;BME280;23062;13.952;100.608;2022-12-01T21:12:15;1009.04;;;30.48;70.11
37170;BME280;23062;13.952;100.608;2022-12-01T21:17:01;1008.92;;;30.48;70.22
37170;BME280;23062;13.952;100.608;2022-12-01T21:21:32;1008.95;;;30.44;70.39
37170;BME280;23062;13.952;100.608;2022-12-01T21:26:00;1009.04;;;30.41;70.13
37170;BME280;23062;13.952;100.608;2022-12-01T21:30:32;1009.00;;;30.31;70.52
37170;BME280;23062;13.952;100.608;2022-12-01T21:35:00;1008.97;;;30.33;70.40
37170;BME280;23062;13.952;100.608;2022-12-01T21:39:29;1009.05;;;30.35;70.40
37170;BME280;23062;13.952;100.608;2022-12-01T21:44:04;1009.07;;;30.36;70.58
37170;BME280;23062;13.952;100.608;2022-12-01T21:49:17;1009.20;;;30.34;70.30
37170;BME280;23062;13.952;100.608;2022-12-01T21:53:43;1009.17;;;30.31;70.35
37170;BME280;23062;13.952;100.608;2022-12-01T21:58:32;1009.13;;;30.32;70.61
37170;BME280;23062;13.952;100.608;2022-12-01T22:03:55;1009.09;;;30.34;70.35
37170;BME280;23062;13.952;100.608;2022-12-01T22:08:37;1009.02;;;30.07;71.42
37170;BME280;23062;13.952;100.608;2022-12-01T22:12:58;1009.02;;;29.81;72.52
37170;BME280;23062;13.952;100.608;2022-12-01T22:17:24;1009.00;;;29.74;73.03
37170;BME280;23062;13.952;100.608;2022-12-01T22:26:56;1009.03;;;29.87;72.66
37170;BME280;23062;13.952;100.608;2022-12-01T22:31:20;1009.09;;;29.88;72.97
37170;BME280;23062;13.952;100.608;2022-12-01T22:35:52;1009.08;;;29.92;72.01
37170;BME280;23062;13.952;100.608;2022-12-01T22:46:37;1009.16;;;29.99;71.68
37170;BME280;23062;13.952;100.608;2022-12-01T23:00:33;1009.25;;;30.24;70.97
37170;BME280;23062;13.952;100.608;2022-12-01T23:09:41;1009.22;;;30.34;70.17
37170;BME280;23062;13.952;100.608;2022-12-01T23:14:15;1009.28;;;30.35;70.00
37170;BME280;23062;13.952;100.608;2022-12-01T23:18:37;1009.35;;;30.35;69.83
37170;BME280;23062;13.952;100.608;2022-12-01T23:23:09;1009.48;;;30.35;69.66
37170;BME280;23062;13.952;100.608;2022-12-01T23:27:34;1009.54;;;30.35;69.61
37170;BME280;23062;13.952;100.608;2022-12-01T23:32:02;1009.59;;;30.33;69.67
37170;BME280;23062;13.952;100.608;2022-12-01T23:36:30;1009.64;;;30.32;69.71
37170;BME280;23062;13.952;100.608;2022-12-01T23:40:59;1009.70;;;30.32;69.63
37170;BME280;23062;13.952;100.608;2022-12-01T23:45:27;1009.78;;;30.29;69.67
37170;BME280;23062;13.952;100.608;2022-12-01T23:49:57;1009.93;;;30.31;69.74
37170;BME280;23062;13.952;100.608;2022-12-01T23:54:31;1009.99;;;30.30;69.72
37170;BME280;23062;13.952;100.608;2022-12-01T23:58:59;1010.00;;;30.31;69.49
